aviador You're here:

YCBA Decoded Metar

in
Report Time2017-08-18 04:17:00
UTC Time2017-08-18 04:56:12
Flight Rules vfr VFR
Wind240° at 15 Gusting to 25 kt
W.Decomp.*RWY 23: 14.8 kt HW 2.6 kt RCW
RWY 17: 5.1 kt HW 14.1 kt RCW
W.Rank240° ranks 20
Current wind is above 240° avg. (8.0)
Visibility9999 m
Phenomena:N/A
Clouds:N/A
Expected CloudBase > 7,600 ft AGL from Temp-Dew spread
CeilingNone
Temp17°C
Dew Point-2°C (27% RH)
AAT9.3°C
QNH1018 hPa
Raw Report
SPECI YCBA 180417Z AUTO 24015G25KT 9999 // NCD 17/M02 Q1018=

Extra information for YCBA:More info

Social comments